createdAt,value
2018-02-10T00:00:08.575Z,66.7
2018-02-10T00:05:05.704Z,66.9
2018-02-10T00:10:13.063Z,66.7
2018-02-10T00:15:08.406Z,66.7
2018-02-10T00:20:03.082Z,66.7
2018-02-10T00:25:05.226Z,67.1
2018-02-10T00:30:05.456Z,67.2
2018-02-10T00:35:03.389Z,67.2
2018-02-10T00:40:03.412Z,67.8
2018-02-10T00:45:05.475Z,68.1
2018-02-10T00:50:05.721Z,68
2018-02-10T00:55:06.128Z,68.3
2018-02-10T01:00:03.136Z,68.3
2018-02-10T01:05:07.777Z,68.4
2018-02-10T01:10:07.906Z,68.5
2018-02-10T01:15:03.518Z,68.5
2018-02-10T01:20:03.155Z,68.4
2018-02-10T01:25:05.374Z,68.7
2018-02-10T01:30:05.460Z,68.9
2018-02-10T01:35:03.491Z,68.9
2018-02-10T01:40:06.059Z,69.7
2018-02-10T01:45:10.676Z,69.8
2018-02-10T01:50:10.868Z,69.9
2018-02-10T01:55:05.305Z,70
2018-02-10T02:00:02.858Z,69.9
2018-02-10T02:05:06.020Z,69.8
2018-02-10T02:10:08.114Z,69.7
2018-02-10T02:15:03.612Z,69.7
2018-02-10T02:20:05.788Z,69.7
2018-02-10T02:25:03.019Z,69.7
2018-02-10T02:30:03.694Z,69.8
2018-02-10T02:35:05.875Z,70
2018-02-10T02:40:05.454Z,69.9
2018-02-10T02:45:08.576Z,69.9
2018-02-10T02:50:03.155Z,69.9
2018-02-10T02:55:05.450Z,69.8
2018-02-10T03:00:08.066Z,69.8
2018-02-10T03:05:03.537Z,69.7
2018-02-10T03:10:08.642Z,69.9
2018-02-10T03:15:05.647Z,69.8
2018-02-10T03:20:03.415Z,69.7
2018-02-10T03:25:10.484Z,69.7
2018-02-10T03:30:03.060Z,69.8
2018-02-10T03:35:08.672Z,69.8
2018-02-10T03:40:10.361Z,69.7
2018-02-10T03:45:05.898Z,69.8
2018-02-10T03:50:06.013Z,69.8
2018-02-10T03:55:03.240Z,69.8
2018-02-10T04:00:02.837Z,69.9
2018-02-10T04:05:08.477Z,69.9
2018-02-10T04:10:03.551Z,69.9
2018-02-10T04:15:02.993Z,70.2
2018-02-10T04:20:11.028Z,70.1
2018-02-10T04:25:10.207Z,70.2
2018-02-10T04:30:06.127Z,70.6
2018-02-10T04:35:02.724Z,70.6
2018-02-10T04:40:03.444Z,70.7
2018-02-10T04:45:02.692Z,70.4
2018-02-10T04:50:05.495Z,70.7
2018-02-10T04:55:03.195Z,70.7
2018-02-10T05:00:13.654Z,70.7
2018-02-10T05:05:05.190Z,71
2018-02-10T05:10:05.510Z,70.9
2018-02-10T05:15:05.734Z,71
2018-02-10T05:20:05.669Z,71
2018-02-10T05:25:11.022Z,71
2018-02-10T05:30:05.850Z,71
2018-02-10T05:35:05.136Z,71
2018-02-10T05:40:05.441Z,71
2018-02-10T05:45:03.137Z,71
2018-02-10T05:50:08.616Z,71
2018-02-10T05:55:02.745Z,71
2018-02-10T06:00:03.061Z,71.1
2018-02-10T06:05:05.783Z,71.1
2018-02-10T06:10:02.688Z,71.1
2018-02-10T06:15:02.865Z,71.4
2018-02-10T06:20:10.843Z,71.3
2018-02-10T06:25:13.699Z,71.3
2018-02-10T06:30:05.532Z,71.4
2018-02-10T06:35:03.229Z,71.4
2018-02-10T06:40:03.037Z,71.5
2018-02-10T06:45:36.198Z,71.6
2018-02-10T06:50:03.535Z,71.6
2018-02-10T06:55:05.352Z,71.6
2018-02-10T07:00:10.190Z,71.7
2018-02-10T07:05:05.415Z,71.8
2018-02-10T07:10:05.694Z,71.7
2018-02-10T07:15:03.429Z,71.7
2018-02-10T07:20:05.405Z,71.4
2018-02-10T07:25:08.153Z,71.5
2018-02-10T07:30:03.392Z,71.5
2018-02-10T07:35:02.643Z,71.8
2018-02-10T07:40:05.953Z,71.9
2018-02-10T07:45:02.666Z,71.9
2018-02-10T07:50:02.992Z,71.7
2018-02-10T07:55:05.819Z,72
2018-02-10T08:00:08.231Z,70.4
2018-02-10T08:05:08.446Z,71.9
2018-02-10T08:10:10.790Z,72
2018-02-10T08:15:03.493Z,72
2018-02-10T08:20:02.889Z,72.1
2018-02-10T08:25:05.672Z,72.6
2018-02-10T08:30:05.461Z,72.7
2018-02-10T08:40:02.770Z,72.6
2018-02-10T08:45:15.725Z,72.9
2018-02-10T08:50:10.601Z,73.1
2018-02-10T08:55:05.872Z,73.1
2018-02-10T09:00:03.144Z,73
2018-02-10T09:05:08.446Z,72.8
2018-02-10T09:10:03.147Z,72.8
2018-02-10T09:15:08.502Z,73.1
2018-02-10T09:20:10.425Z,72.9
2018-02-10T09:25:05.648Z,72.2
2018-02-10T09:30:02.985Z,72.2
2018-02-10T09:35:05.761Z,72.4
2018-02-10T09:40:06.108Z,72.6
2018-02-10T09:45:02.889Z,72.5
2018-02-10T09:50:05.788Z,71.6
2018-02-10T09:55:11.038Z,71.1
2018-02-10T10:00:08.496Z,71.2
2018-02-10T10:05:23.043Z,71.1
2018-02-10T10:10:02.774Z,71.1
2018-02-10T10:15:03.112Z,70.5
2018-02-10T10:20:06.116Z,70.5
2018-02-10T10:25:02.745Z,70.5
2018-02-10T10:30:03.287Z,70.4
2018-02-10T10:35:08.395Z,69.5
2018-02-10T10:40:03.137Z,69.5
2018-02-10T10:45:05.955Z,69
2018-02-10T10:50:08.342Z,68.5
2018-02-10T10:55:07.692Z,67.7
2018-02-10T11:00:02.974Z,67.7
2018-02-10T11:05:05.876Z,65.3
2018-02-10T11:10:15.306Z,65.1
2018-02-10T11:15:05.548Z,64
2018-02-10T11:20:02.931Z,63.9
2018-02-10T11:25:03.316Z,63.3
2018-02-10T11:30:15.239Z,61.5
2018-02-10T11:35:05.381Z,61.1
2018-02-10T11:40:08.217Z,59.3
2018-02-10T11:45:03.551Z,59.2
2018-02-10T11:50:05.351Z,59.2
2018-02-10T11:55:08.190Z,58.5
2018-02-10T12:00:03.432Z,58.5
2018-02-10T12:05:07.832Z,56.6
2018-02-10T12:10:02.769Z,56.6
2018-02-10T12:15:13.099Z,55.9
2018-02-10T12:20:08.759Z,54.3
2018-02-10T12:25:02.888Z,54.3
2018-02-10T12:30:03.222Z,55.1
2018-02-10T12:35:03.485Z,54.2
2018-02-10T12:40:03.290Z,54
2018-02-10T12:45:02.816Z,54.7
2018-02-10T12:50:03.148Z,54.9
2018-02-10T12:55:03.455Z,55
2018-02-10T13:00:05.380Z,54.6
2018-02-10T13:05:05.642Z,54
2018-02-10T13:10:13.550Z,54
2018-02-10T13:15:07.741Z,54
2018-02-10T13:20:08.143Z,54
2018-02-10T13:25:05.861Z,54.4
2018-02-10T13:30:10.807Z,53.9
2018-02-10T13:35:06.005Z,54.1
2018-02-10T13:40:05.378Z,55
2018-02-10T13:45:20.892Z,54.8
2018-02-10T13:50:03.205Z,54.9
2018-02-10T13:55:21.262Z,55.4
2018-02-10T14:00:07.663Z,55.1
2018-02-10T14:05:07.923Z,54.8
2018-02-10T14:10:07.757Z,53.6
2018-02-10T14:15:05.585Z,54.2
2018-02-10T14:20:03.019Z,54.2
2018-02-10T14:25:10.910Z,54.5
2018-02-10T14:30:05.756Z,55.4
2018-02-10T14:35:08.600Z,55.8
2018-02-10T14:40:10.990Z,56.3
2018-02-10T14:45:10.258Z,56.7
2018-02-10T14:50:07.665Z,57.2
2018-02-10T14:55:10.506Z,57.8
2018-02-10T15:00:07.882Z,58.1
2018-02-10T15:05:10.780Z,58.2
2018-02-10T15:10:05.148Z,58.2
2018-02-10T15:15:02.834Z,58.2
2018-02-10T15:20:05.718Z,58.9
2018-02-10T15:25:23.771Z,59.2
2018-02-10T15:30:03.062Z,59.2
2018-02-10T15:35:03.499Z,59.5
2018-02-10T15:40:03.302Z,59.6
2018-02-10T15:45:05.340Z,59.9
2018-02-10T15:50:02.640Z,60.9
2018-02-10T15:55:02.954Z,60.2
2018-02-10T16:00:03.270Z,60.2
2018-02-10T16:05:02.594Z,60.3
2018-02-10T16:10:08.584Z,60.8
2018-02-10T16:15:07.932Z,61
2018-02-10T16:20:05.840Z,61.4
2018-02-10T16:25:03.546Z,61.4
2018-02-10T16:30:10.426Z,62.2
2018-02-10T16:35:08.256Z,62.4
2018-02-10T16:40:05.547Z,62.6
2018-02-10T16:45:05.922Z,63
2018-02-10T16:50:03.206Z,62.9
2018-02-10T16:55:10.210Z,63.6
2018-02-10T17:00:03.584Z,63.5
2018-02-10T17:05:02.951Z,63.6
2018-02-10T17:10:05.259Z,64.1
2018-02-10T17:15:05.647Z,64.2
2018-02-10T17:20:03.094Z,64.2
2018-02-10T17:25:11.057Z,64.4
2018-02-10T17:30:03.344Z,64.4
2018-02-10T17:35:02.651Z,64.8
2018-02-10T17:40:03.475Z,64.8
2018-02-10T17:45:07.717Z,65
2018-02-10T17:50:05.548Z,65.1
2018-02-10T17:55:05.839Z,65.2
2018-02-10T18:00:03.179Z,65.2
2018-02-10T18:05:05.952Z,65.3
2018-02-10T18:10:02.720Z,65.3
2018-02-10T18:15:02.995Z,65.2
2018-02-10T18:20:05.920Z,65.4
2018-02-10T18:25:10.349Z,65.5
2018-02-10T18:30:10.243Z,65.5
2018-02-10T18:35:02.960Z,65.5
2018-02-10T18:40:05.303Z,66.1
2018-02-10T18:45:08.154Z,66.4
2018-02-10T18:50:08.589Z,66.7
2018-02-10T18:55:17.957Z,66.6
2018-02-10T19:00:08.349Z,66.8
2018-02-10T19:05:07.689Z,67.1
2018-02-10T19:10:10.982Z,67.1
2018-02-10T19:15:12.846Z,67.2
2018-02-10T19:20:03.247Z,67.2
2018-02-10T19:25:03.518Z,67.3
2018-02-10T19:30:05.452Z,68
2018-02-10T19:35:05.730Z,68.2
2018-02-10T19:40:03.449Z,68.2
2018-02-10T19:45:05.274Z,68.8
2018-02-10T19:50:02.602Z,68.7
2018-02-10T19:55:02.868Z,68.6
2018-02-10T20:00:05.683Z,69
2018-02-10T20:05:08.558Z,69.1
2018-02-10T20:10:03.311Z,69.1
2018-02-10T20:15:06.091Z,68.9
2018-02-10T20:20:03.444Z,68.9
2018-02-10T20:25:05.344Z,69.4
2018-02-10T20:30:05.312Z,69.3
2018-02-10T20:35:05.591Z,69
2018-02-10T20:40:03.426Z,69
2018-02-10T20:45:02.579Z,69.1
2018-02-10T20:50:02.874Z,69.4
2018-02-10T20:55:05.719Z,69.5
2018-02-10T21:00:06.099Z,69.4
2018-02-10T21:05:05.924Z,69.5
2018-02-10T21:10:05.221Z,69.4
2018-02-10T21:15:05.530Z,69.6
2018-02-10T21:20:10.581Z,69.6
2018-02-10T21:25:03.178Z,69.6
2018-02-10T21:30:03.487Z,69.4
2018-02-10T21:35:05.452Z,69.6
2018-02-10T21:40:03.172Z,69.5
2018-02-10T21:45:06.064Z,70.4
2018-02-10T21:50:05.886Z,70.7
2018-02-10T21:55:10.199Z,70.8
2018-02-10T22:00:03.489Z,70.8
2018-02-10T22:05:05.346Z,70.7
2018-02-10T22:10:03.083Z,70.7
2018-02-10T22:15:03.464Z,70.8
2018-02-10T22:20:07.950Z,71.2
2018-02-10T22:25:03.156Z,71.2
2018-02-10T22:30:08.522Z,72.3
2018-02-10T22:35:02.829Z,72.2
2018-02-10T22:40:05.107Z,73.4
2018-02-10T22:45:10.660Z,73.9
2018-02-10T22:50:02.994Z,73.9
2018-02-10T22:55:03.300Z,74.4
2018-02-10T23:00:15.651Z,74.4
2018-02-10T23:05:05.733Z,74.1
2018-02-10T23:10:33.918Z,74.5
2018-02-10T23:15:05.743Z,74.4
2018-02-10T23:20:05.681Z,74.4
2018-02-10T23:25:08.448Z,74
2018-02-10T23:30:02.727Z,74
2018-02-10T23:35:05.570Z,73.8
2018-02-10T23:40:05.911Z,73.3
2018-02-10T23:45:02.649Z,73.3
2018-02-10T23:50:05.488Z,73.3
2018-02-10T23:55:03.210Z,73.3
